sensor_id;sensor_type;location;lat;lon;timestamp;pressure;altitude;pressure_sealevel;temperature
20092;BMP180;10205;49.678;6.560;2023-08-24T00:01:39;100132.00;;;27.90
20092;BMP180;10205;49.678;6.560;2023-08-24T00:04:08;100127.00;;;27.80
20092;BMP180;10205;49.678;6.560;2023-08-24T00:06:36;100123.00;;;27.80
20092;BMP180;10205;49.678;6.560;2023-08-24T00:09:04;100135.00;;;27.70
20092;BMP180;10205;49.678;6.560;2023-08-24T00:11:31;100131.00;;;27.70
20092;BMP180;10205;49.678;6.560;2023-08-24T00:13:59;100135.00;;;27.70
20092;BMP180;10205;49.678;6.560;2023-08-24T00:16:27;100125.00;;;27.60
20092;BMP180;10205;49.678;6.560;2023-08-24T00:18:55;100130.00;;;27.60
20092;BMP180;10205;49.678;6.560;2023-08-24T00:21:24;100126.00;;;27.50
20092;BMP180;10205;49.678;6.560;2023-08-24T00:23:51;100135.00;;;27.50
20092;BMP180;10205;49.678;6.560;2023-08-24T00:26:19;100132.00;;;27.50
20092;BMP180;10205;49.678;6.560;2023-08-24T00:28:47;100136.00;;;27.40
20092;BMP180;10205;49.678;6.560;2023-08-24T00:31:16;100128.00;;;27.40
20092;BMP180;10205;49.678;6.560;2023-08-24T00:33:43;100131.00;;;27.40
20092;BMP180;10205;49.678;6.560;2023-08-24T00:36:10;100128.00;;;27.30
20092;BMP180;10205;49.678;6.560;2023-08-24T00:38:39;100126.00;;;27.30
20092;BMP180;10205;49.678;6.560;2023-08-24T00:41:09;100122.00;;;27.30
20092;BMP180;10205;49.678;6.560;2023-08-24T00:43:36;100118.00;;;27.20
20092;BMP180;10205;49.678;6.560;2023-08-24T00:46:04;100119.00;;;27.20
20092;BMP180;10205;49.678;6.560;2023-08-24T00:48:31;100110.00;;;27.20
20092;BMP180;10205;49.678;6.560;2023-08-24T00:51:01;100108.00;;;27.10
20092;BMP180;10205;49.678;6.560;2023-08-24T00:53:30;100105.00;;;27.10
20092;BMP180;10205;49.678;6.560;2023-08-24T00:55:59;100094.00;;;27.00
20092;BMP180;10205;49.678;6.560;2023-08-24T00:58:28;100080.00;;;27.00
20092;BMP180;10205;49.678;6.560;2023-08-24T01:00:56;100067.00;;;27.00
20092;BMP180;10205;49.678;6.560;2023-08-24T01:03:24;100078.00;;;26.90
20092;BMP180;10205;49.678;6.560;2023-08-24T01:05:52;100062.00;;;26.90
20092;BMP180;10205;49.678;6.560;2023-08-24T01:08:21;100068.00;;;26.90
20092;BMP180;10205;49.678;6.560;2023-08-24T01:11:01;100073.00;;;26.90
20092;BMP180;10205;49.678;6.560;2023-08-24T01:13:38;100059.00;;;26.80
20092;BMP180;10205;49.678;6.560;2023-08-24T01:16:14;100049.00;;;26.80
20092;BMP180;10205;49.678;6.560;2023-08-24T01:18:44;100058.00;;;26.80
20092;BMP180;10205;49.678;6.560;2023-08-24T01:21:13;100046.00;;;26.70
20092;BMP180;10205;49.678;6.560;2023-08-24T01:23:48;100042.00;;;26.70
20092;BMP180;10205;49.678;6.560;2023-08-24T01:26:21;100029.00;;;26.70
20092;BMP180;10205;49.678;6.560;2023-08-24T01:28:50;100013.00;;;26.60
20092;BMP180;10205;49.678;6.560;2023-08-24T01:31:18;99997.00;;;26.60
20092;BMP180;10205;49.678;6.560;2023-08-24T01:33:49;99992.00;;;26.60
20092;BMP180;10205;49.678;6.560;2023-08-24T01:36:16;99997.00;;;26.60
20092;BMP180;10205;49.678;6.560;2023-08-24T01:38:48;100011.00;;;26.50
20092;BMP180;10205;49.678;6.560;2023-08-24T01:41:28;100011.00;;;26.50
20092;BMP180;10205;49.678;6.560;2023-08-24T01:43:58;100004.00;;;26.40
20092;BMP180;10205;49.678;6.560;2023-08-24T01:46:28;100010.00;;;26.40
20092;BMP180;10205;49.678;6.560;2023-08-24T01:48:57;100014.00;;;26.40
20092;BMP180;10205;49.678;6.560;2023-08-24T01:51:26;99995.00;;;26.40
20092;BMP180;10205;49.678;6.560;2023-08-24T01:53:53;99997.00;;;26.30
20092;BMP180;10205;49.678;6.560;2023-08-24T01:56:23;99973.00;;;26.30
20092;BMP180;10205;49.678;6.560;2023-08-24T01:58:51;99976.00;;;26.30
20092;BMP180;10205;49.678;6.560;2023-08-24T02:01:18;99967.00;;;26.20
20092;BMP180;10205;49.678;6.560;2023-08-24T02:03:46;99956.00;;;26.20
20092;BMP180;10205;49.678;6.560;2023-08-24T02:06:13;99958.00;;;26.20
20092;BMP180;10205;49.678;6.560;2023-08-24T02:08:41;99964.00;;;26.10
20092;BMP180;10205;49.678;6.560;2023-08-24T02:11:10;99958.00;;;26.10
20092;BMP180;10205;49.678;6.560;2023-08-24T02:13:39;99965.00;;;26.10
20092;BMP180;10205;49.678;6.560;2023-08-24T02:16:08;99975.00;;;26.00
20092;BMP180;10205;49.678;6.560;2023-08-24T02:18:35;99985.00;;;26.00
20092;BMP180;10205;49.678;6.560;2023-08-24T02:21:07;99963.00;;;26.00
20092;BMP180;10205;49.678;6.560;2023-08-24T02:23:37;99947.00;;;26.00
20092;BMP180;10205;49.678;6.560;2023-08-24T02:26:04;99949.00;;;25.90
20092;BMP180;10205;49.678;6.560;2023-08-24T02:28:32;99948.00;;;25.90
20092;BMP180;10205;49.678;6.560;2023-08-24T02:31:05;99945.00;;;25.90
20092;BMP180;10205;49.678;6.560;2023-08-24T02:33:33;99949.00;;;25.80
20092;BMP180;10205;49.678;6.560;2023-08-24T02:36:00;99946.00;;;25.80
20092;BMP180;10205;49.678;6.560;2023-08-24T02:38:28;99936.00;;;25.70
20092;BMP180;10205;49.678;6.560;2023-08-24T02:41:03;99930.00;;;25.70
20092;BMP180;10205;49.678;6.560;2023-08-24T02:43:31;99927.00;;;25.70
20092;BMP180;10205;49.678;6.560;2023-08-24T02:46:02;99931.00;;;25.60
20092;BMP180;10205;49.678;6.560;2023-08-24T02:48:32;99931.00;;;25.60
20092;BMP180;10205;49.678;6.560;2023-08-24T02:51:01;99930.00;;;25.50
20092;BMP180;10205;49.678;6.560;2023-08-24T02:53:30;99927.00;;;25.50
20092;BMP180;10205;49.678;6.560;2023-08-24T02:55:58;99923.00;;;25.50
20092;BMP180;10205;49.678;6.560;2023-08-24T02:58:25;99926.00;;;25.50
20092;BMP180;10205;49.678;6.560;2023-08-24T03:00:53;99934.00;;;25.40
20092;BMP180;10205;49.678;6.560;2023-08-24T03:03:21;99933.00;;;25.40
20092;BMP180;10205;49.678;6.560;2023-08-24T03:05:59;99952.00;;;25.40
20092;BMP180;10205;49.678;6.560;2023-08-24T03:08:29;99926.00;;;25.40
20092;BMP180;10205;49.678;6.560;2023-08-24T03:10:57;99921.00;;;25.30
20092;BMP180;10205;49.678;6.560;2023-08-24T03:13:25;99929.00;;;25.30
20092;BMP180;10205;49.678;6.560;2023-08-24T03:15:53;99925.00;;;25.30
20092;BMP180;10205;49.678;6.560;2023-08-24T03:18:21;99932.00;;;25.30
20092;BMP180;10205;49.678;6.560;2023-08-24T03:20:49;99931.00;;;25.30
20092;BMP180;10205;49.678;6.560;2023-08-24T03:23:18;99940.00;;;25.30
20092;BMP180;10205;49.678;6.560;2023-08-24T03:25:46;99950.00;;;25.20
20092;BMP180;10205;49.678;6.560;2023-08-24T03:28:13;99970.00;;;25.20
20092;BMP180;10205;49.678;6.560;2023-08-24T03:30:46;99983.00;;;25.20
20092;BMP180;10205;49.678;6.560;2023-08-24T03:33:14;99989.00;;;25.20
20092;BMP180;10205;49.678;6.560;2023-08-24T03:35:42;100012.00;;;25.10
20092;BMP180;10205;49.678;6.560;2023-08-24T03:38:12;100040.00;;;25.10
20092;BMP180;10205;49.678;6.560;2023-08-24T03:40:41;100053.00;;;25.00
20092;BMP180;10205;49.678;6.560;2023-08-24T03:43:08;100066.00;;;25.00
20092;BMP180;10205;49.678;6.560;2023-08-24T03:45:36;100073.00;;;25.00
20092;BMP180;10205;49.678;6.560;2023-08-24T03:48:04;100089.00;;;25.00
20092;BMP180;10205;49.678;6.560;2023-08-24T03:50:31;100087.00;;;25.00
20092;BMP180;10205;49.678;6.560;2023-08-24T03:52:59;100092.00;;;24.90
20092;BMP180;10205;49.678;6.560;2023-08-24T03:55:26;100090.00;;;24.90
20092;BMP180;10205;49.678;6.560;2023-08-24T03:57:55;100103.00;;;24.90
20092;BMP180;10205;49.678;6.560;2023-08-24T04:00:23;100093.00;;;24.90
20092;BMP180;10205;49.678;6.560;2023-08-24T04:02:52;100099.00;;;24.90
20092;BMP180;10205;49.678;6.560;2023-08-24T04:05:19;100117.00;;;24.90
20092;BMP180;10205;49.678;6.560;2023-08-24T04:07:46;100109.00;;;24.90
20092;BMP180;10205;49.678;6.560;2023-08-24T04:10:14;100114.00;;;24.80
20092;BMP180;10205;49.678;6.560;2023-08-24T04:12:41;100107.00;;;24.90
20092;BMP180;10205;49.678;6.560;2023-08-24T04:15:12;100094.00;;;24.80
20092;BMP180;10205;49.678;6.560;2023-08-24T04:17:40;100102.00;;;24.80
20092;BMP180;10205;49.678;6.560;2023-08-24T04:20:08;100106.00;;;24.80
20092;BMP180;10205;49.678;6.560;2023-08-24T04:22:36;100105.00;;;24.80
20092;BMP180;10205;49.678;6.560;2023-08-24T04:25:05;100110.00;;;24.80
20092;BMP180;10205;49.678;6.560;2023-08-24T04:27:33;100107.00;;;24.80
20092;BMP180;10205;49.678;6.560;2023-08-24T04:30:00;100119.00;;;24.80
20092;BMP180;10205;49.678;6.560;2023-08-24T04:32:32;100111.00;;;24.70
20092;BMP180;10205;49.678;6.560;2023-08-24T04:34:59;100118.00;;;24.70
20092;BMP180;10205;49.678;6.560;2023-08-24T04:37:27;100121.00;;;24.70
20092;BMP180;10205;49.678;6.560;2023-08-24T04:39:54;100114.00;;;24.70
20092;BMP180;10205;49.678;6.560;2023-08-24T04:42:22;100083.00;;;24.70
20092;BMP180;10205;49.678;6.560;2023-08-24T04:44:51;100024.00;;;24.70
20092;BMP180;10205;49.678;6.560;2023-08-24T04:47:20;99961.00;;;24.70
20092;BMP180;10205;49.678;6.560;2023-08-24T04:49:49;99956.00;;;24.70
20092;BMP180;10205;49.678;6.560;2023-08-24T04:52:17;99975.00;;;24.60
20092;BMP180;10205;49.678;6.560;2023-08-24T04:54:45;99973.00;;;24.50
20092;BMP180;10205;49.678;6.560;2023-08-24T04:57:12;99971.00;;;24.50
20092;BMP180;10205;49.678;6.560;2023-08-24T04:59:40;99986.00;;;24.50
20092;BMP180;10205;49.678;6.560;2023-08-24T05:02:07;100010.00;;;24.50
20092;BMP180;10205;49.678;6.560;2023-08-24T05:04:35;100019.00;;;24.50
20092;BMP180;10205;49.678;6.560;2023-08-24T05:07:03;100017.00;;;24.40
20092;BMP180;10205;49.678;6.560;2023-08-24T05:09:31;100023.00;;;24.40
20092;BMP180;10205;49.678;6.560;2023-08-24T05:11:58;100028.00;;;24.40
20092;BMP180;10205;49.678;6.560;2023-08-24T05:14:25;100028.00;;;24.40
20092;BMP180;10205;49.678;6.560;2023-08-24T05:16:53;100029.00;;;24.40
20092;BMP180;10205;49.678;6.560;2023-08-24T05:19:20;100029.00;;;24.40
20092;BMP180;10205;49.678;6.560;2023-08-24T05:21:47;100054.00;;;24.30
20092;BMP180;10205;49.678;6.560;2023-08-24T05:24:16;100065.00;;;24.30
20092;BMP180;10205;49.678;6.560;2023-08-24T05:26:44;100059.00;;;24.30
20092;BMP180;10205;49.678;6.560;2023-08-24T05:29:11;100050.00;;;24.30
20092;BMP180;10205;49.678;6.560;2023-08-24T05:31:39;100046.00;;;24.30
20092;BMP180;10205;49.678;6.560;2023-08-24T05:34:09;100038.00;;;24.30
20092;BMP180;10205;49.678;6.560;2023-08-24T05:36:36;100038.00;;;24.20
20092;BMP180;10205;49.678;6.560;2023-08-24T05:39:04;100031.00;;;24.30
20092;BMP180;10205;49.678;6.560;2023-08-24T05:41:33;100036.00;;;24.20
20092;BMP180;10205;49.678;6.560;2023-08-24T05:44:02;100067.00;;;24.20
20092;BMP180;10205;49.678;6.560;2023-08-24T05:46:30;100073.00;;;24.20
20092;BMP180;10205;49.678;6.560;2023-08-24T05:48:58;100075.00;;;24.20
20092;BMP180;10205;49.678;6.560;2023-08-24T05:51:26;100069.00;;;24.10
20092;BMP180;10205;49.678;6.560;2023-08-24T05:53:54;100102.00;;;24.10
20092;BMP180;10205;49.678;6.560;2023-08-24T05:56:22;100121.00;;;24.20
20092;BMP180;10205;49.678;6.560;2023-08-24T05:58:51;100156.00;;;24.10
20092;BMP180;10205;49.678;6.560;2023-08-24T06:01:18;100184.00;;;24.10
20092;BMP180;10205;49.678;6.560;2023-08-24T06:03:46;100182.00;;;24.10
20092;BMP180;10205;49.678;6.560;2023-08-24T06:06:14;100135.00;;;24.10
20092;BMP180;10205;49.678;6.560;2023-08-24T06:08:41;100095.00;;;24.10
20092;BMP180;10205;49.678;6.560;2023-08-24T06:11:09;100041.00;;;24.10
20092;BMP180;10205;49.678;6.560;2023-08-24T06:13:36;99994.00;;;24.10
20092;BMP180;10205;49.678;6.560;2023-08-24T06:16:05;99960.00;;;24.10
20092;BMP180;10205;49.678;6.560;2023-08-24T06:18:33;99952.00;;;24.10
20092;BMP180;10205;49.678;6.560;2023-08-24T06:21:00;99952.00;;;24.00
20092;BMP180;10205;49.678;6.560;2023-08-24T06:23:28;99960.00;;;24.00
20092;BMP180;10205;49.678;6.560;2023-08-24T06:25:56;99947.00;;;24.00
20092;BMP180;10205;49.678;6.560;2023-08-24T06:28:23;99950.00;;;24.00
20092;BMP180;10205;49.678;6.560;2023-08-24T06:30:50;99977.00;;;24.00
20092;BMP180;10205;49.678;6.560;2023-08-24T06:33:19;99982.00;;;24.00
20092;BMP180;10205;49.678;6.560;2023-08-24T06:35:46;99957.00;;;24.00
20092;BMP180;10205;49.678;6.560;2023-08-24T06:38:13;99923.00;;;24.00
20092;BMP180;10205;49.678;6.560;2023-08-24T06:40:41;99906.00;;;24.00
20092;BMP180;10205;49.678;6.560;2023-08-24T06:43:08;99882.00;;;24.00
20092;BMP180;10205;49.678;6.560;2023-08-24T06:45:35;99893.00;;;24.00
20092;BMP180;10205;49.678;6.560;2023-08-24T06:48:04;99893.00;;;24.00
20092;BMP180;10205;49.678;6.560;2023-08-24T06:50:34;99898.00;;;24.00
20092;BMP180;10205;49.678;6.560;2023-08-24T06:53:03;99865.00;;;24.00
20092;BMP180;10205;49.678;6.560;2023-08-24T06:55:30;99852.00;;;24.00
20092;BMP180;10205;49.678;6.560;2023-08-24T06:57:58;99863.00;;;24.00
20092;BMP180;10205;49.678;6.560;2023-08-24T07:00:25;99869.00;;;24.00
20092;BMP180;10205;49.678;6.560;2023-08-24T07:02:52;99856.00;;;24.00
20092;BMP180;10205;49.678;6.560;2023-08-24T07:05:20;99846.00;;;24.00
20092;BMP180;10205;49.678;6.560;2023-08-24T07:07:50;99852.00;;;24.10
20092;BMP180;10205;49.678;6.560;2023-08-24T07:10:17;99837.00;;;24.10
20092;BMP180;10205;49.678;6.560;2023-08-24T07:12:45;99848.00;;;24.10
20092;BMP180;10205;49.678;6.560;2023-08-24T07:15:13;99841.00;;;24.10
20092;BMP180;10205;49.678;6.560;2023-08-24T07:17:41;99820.00;;;24.10
20092;BMP180;10205;49.678;6.560;2023-08-24T07:20:09;99811.00;;;24.10
20092;BMP180;10205;49.678;6.560;2023-08-24T07:22:37;99804.00;;;24.10
20092;BMP180;10205;49.678;6.560;2023-08-24T07:25:08;99808.00;;;24.10
20092;BMP180;10205;49.678;6.560;2023-08-24T07:27:37;99810.00;;;24.10
20092;BMP180;10205;49.678;6.560;2023-08-24T07:30:06;99794.00;;;24.10
20092;BMP180;10205;49.678;6.560;2023-08-24T07:32:35;99794.00;;;24.10
20092;BMP180;10205;49.678;6.560;2023-08-24T07:35:03;99791.00;;;24.10
20092;BMP180;10205;49.678;6.560;2023-08-24T07:37:32;99784.00;;;24.20
20092;BMP180;10205;49.678;6.560;2023-08-24T07:40:00;99775.00;;;24.10
20092;BMP180;10205;49.678;6.560;2023-08-24T07:42:28;99774.00;;;24.20
20092;BMP180;10205;49.678;6.560;2023-08-24T07:44:56;99775.00;;;24.20
20092;BMP180;10205;49.678;6.560;2023-08-24T07:47:24;99775.00;;;24.20
20092;BMP180;10205;49.678;6.560;2023-08-24T07:49:51;99776.00;;;24.20
20092;BMP180;10205;49.678;6.560;2023-08-24T07:52:19;99779.00;;;24.20
20092;BMP180;10205;49.678;6.560;2023-08-24T07:54:47;99756.00;;;24.30
20092;BMP180;10205;49.678;6.560;2023-08-24T07:57:15;99751.00;;;24.30
20092;BMP180;10205;49.678;6.560;2023-08-24T07:59:44;99773.00;;;24.30
20092;BMP180;10205;49.678;6.560;2023-08-24T08:02:11;99779.00;;;24.30
20092;BMP180;10205;49.678;6.560;2023-08-24T08:04:41;99765.00;;;24.30
20092;BMP180;10205;49.678;6.560;2023-08-24T08:07:08;99760.00;;;24.30
20092;BMP180;10205;49.678;6.560;2023-08-24T08:09:36;99755.00;;;24.30
20092;BMP180;10205;49.678;6.560;2023-08-24T08:12:05;99751.00;;;24.40
20092;BMP180;10205;49.678;6.560;2023-08-24T08:14:33;99751.00;;;24.40
20092;BMP180;10205;49.678;6.560;2023-08-24T08:17:02;99766.00;;;24.50
20092;BMP180;10205;49.678;6.560;2023-08-24T08:19:29;99758.00;;;24.50
20092;BMP180;10205;49.678;6.560;2023-08-24T08:21:57;99756.00;;;24.50
20092;BMP180;10205;49.678;6.560;2023-08-24T08:24:25;99762.00;;;24.60
20092;BMP180;10205;49.678;6.560;2023-08-24T08:26:52;99764.00;;;24.60
20092;BMP180;10205;49.678;6.560;2023-08-24T08:29:20;99755.00;;;24.60
20092;BMP180;10205;49.678;6.560;2023-08-24T08:31:47;99756.00;;;24.70
20092;BMP180;10205;49.678;6.560;2023-08-24T08:34:16;99762.00;;;24.70
20092;BMP180;10205;49.678;6.560;2023-08-24T08:36:43;99762.00;;;24.80
20092;BMP180;10205;49.678;6.560;2023-08-24T08:39:11;99756.00;;;24.80
20092;BMP180;10205;49.678;6.560;2023-08-24T08:41:43;99744.00;;;24.80
20092;BMP180;10205;49.678;6.560;2023-08-24T08:44:13;99761.00;;;24.90
20092;BMP180;10205;49.678;6.560;2023-08-24T08:46:43;99762.00;;;24.90
20092;BMP180;10205;49.678;6.560;2023-08-24T08:49:13;99756.00;;;25.00
20092;BMP180;10205;49.678;6.560;2023-08-24T08:51:45;99757.00;;;25.00
20092;BMP180;10205;49.678;6.560;2023-08-24T08:54:12;99753.00;;;25.10
20092;BMP180;10205;49.678;6.560;2023-08-24T08:56:40;99760.00;;;25.10
20092;BMP180;10205;49.678;6.560;2023-08-24T08:59:11;99747.00;;;25.20
20092;BMP180;10205;49.678;6.560;2023-08-24T09:01:41;99739.00;;;25.30
20092;BMP180;10205;49.678;6.560;2023-08-24T09:04:11;99735.00;;;25.30
20092;BMP180;10205;49.678;6.560;2023-08-24T09:06:38;99728.00;;;25.30
20092;BMP180;10205;49.678;6.560;2023-08-24T09:09:08;99731.00;;;25.40
20092;BMP180;10205;49.678;6.560;2023-08-24T09:11:36;99734.00;;;25.40
20092;BMP180;10205;49.678;6.560;2023-08-24T09:14:04;99724.00;;;25.50
20092;BMP180;10205;49.678;6.560;2023-08-24T09:16:33;99724.00;;;25.50
20092;BMP180;10205;49.678;6.560;2023-08-24T09:19:05;99718.00;;;25.60
20092;BMP180;10205;49.678;6.560;2023-08-24T09:21:37;99705.00;;;25.70
20092;BMP180;10205;49.678;6.560;2023-08-24T09:24:08;99720.00;;;25.70
20092;BMP180;10205;49.678;6.560;2023-08-24T09:26:37;99722.00;;;25.80
20092;BMP180;10205;49.678;6.560;2023-08-24T09:29:13;99731.00;;;25.80
20092;BMP180;10205;49.678;6.560;2023-08-24T09:31:41;99724.00;;;25.90
20092;BMP180;10205;49.678;6.560;2023-08-24T09:34:10;99728.00;;;26.00
20092;BMP180;10205;49.678;6.560;2023-08-24T09:36:39;99723.00;;;26.00
20092;BMP180;10205;49.678;6.560;2023-08-24T09:39:09;99723.00;;;26.00
20092;BMP180;10205;49.678;6.560;2023-08-24T09:41:39;99715.00;;;26.10
20092;BMP180;10205;49.678;6.560;2023-08-24T09:44:07;99708.00;;;26.10
20092;BMP180;10205;49.678;6.560;2023-08-24T09:46:36;99709.00;;;26.20
20092;BMP180;10205;49.678;6.560;2023-08-24T09:49:06;99693.00;;;26.20
20092;BMP180;10205;49.678;6.560;2023-08-24T09:51:35;99701.00;;;26.30
20092;BMP180;10205;49.678;6.560;2023-08-24T09:54:05;99696.00;;;26.30
20092;BMP180;10205;49.678;6.560;2023-08-24T09:56:37;99686.00;;;26.40
20092;BMP180;10205;49.678;6.560;2023-08-24T09:59:12;99682.00;;;26.50
20092;BMP180;10205;49.678;6.560;2023-08-24T10:01:43;99688.00;;;26.50
20092;BMP180;10205;49.678;6.560;2023-08-24T10:04:12;99676.00;;;26.60
20092;BMP180;10205;49.678;6.560;2023-08-24T10:06:40;99698.00;;;26.60
20092;BMP180;10205;49.678;6.560;2023-08-24T10:09:18;99688.00;;;26.70
20092;BMP180;10205;49.678;6.560;2023-08-24T10:11:54;99701.00;;;26.80
20092;BMP180;10205;49.678;6.560;2023-08-24T10:14:30;99707.00;;;26.80
20092;BMP180;10205;49.678;6.560;2023-08-24T10:16:58;99710.00;;;26.90
20092;BMP180;10205;49.678;6.560;2023-08-24T10:19:27;99711.00;;;27.00
20092;BMP180;10205;49.678;6.560;2023-08-24T10:21:56;99702.00;;;27.00
20092;BMP180;10205;49.678;6.560;2023-08-24T10:24:24;99710.00;;;27.10
20092;BMP180;10205;49.678;6.560;2023-08-24T10:26:55;99711.00;;;27.10
20092;BMP180;10205;49.678;6.560;2023-08-24T10:29:25;99695.00;;;27.20
20092;BMP180;10205;49.678;6.560;2023-08-24T10:31:55;99698.00;;;27.20
20092;BMP180;10205;49.678;6.560;2023-08-24T10:34:24;99691.00;;;27.30
20092;BMP180;10205;49.678;6.560;2023-08-24T10:36:51;99681.00;;;27.40
20092;BMP180;10205;49.678;6.560;2023-08-24T10:39:27;99694.00;;;27.40
20092;BMP180;10205;49.678;6.560;2023-08-24T10:42:01;99704.00;;;27.40
20092;BMP180;10205;49.678;6.560;2023-08-24T10:44:35;99699.00;;;27.50
20092;BMP180;10205;49.678;6.560;2023-08-24T10:47:12;99686.00;;;27.50
20092;BMP180;10205;49.678;6.560;2023-08-24T10:49:40;99689.00;;;27.50
20092;BMP180;10205;49.678;6.560;2023-08-24T10:52:18;99672.00;;;27.60
20092;BMP180;10205;49.678;6.560;2023-08-24T10:54:50;99672.00;;;27.60
20092;BMP180;10205;49.678;6.560;2023-08-24T10:57:22;99685.00;;;27.60
20092;BMP180;10205;49.678;6.560;2023-08-24T11:00:03;99677.00;;;27.60
20092;BMP180;10205;49.678;6.560;2023-08-24T11:02:43;99689.00;;;27.70
20092;BMP180;10205;49.678;6.560;2023-08-24T11:05:19;99686.00;;;27.70
20092;BMP180;10205;49.678;6.560;2023-08-24T11:07:52;99679.00;;;27.70
20092;BMP180;10205;49.678;6.560;2023-08-24T11:10:21;99691.00;;;27.70
20092;BMP180;10205;49.678;6.560;2023-08-24T11:13:09;99702.00;;;27.70
20092;BMP180;10205;49.678;6.560;2023-08-24T11:15:42;99693.00;;;27.80
20092;BMP180;10205;49.678;6.560;2023-08-24T11:18:22;99686.00;;;27.80
20092;BMP180;10205;49.678;6.560;2023-08-24T11:20:53;99667.00;;;27.80
20092;BMP180;10205;49.678;6.560;2023-08-24T11:23:23;99667.00;;;27.80
20092;BMP180;10205;49.678;6.560;2023-08-24T11:25:53;99664.00;;;27.90
20092;BMP180;10205;49.678;6.560;2023-08-24T11:28:26;99656.00;;;27.90
20092;BMP180;10205;49.678;6.560;2023-08-24T11:30:55;99640.00;;;27.90
20092;BMP180;10205;49.678;6.560;2023-08-24T11:33:30;99641.00;;;27.90
20092;BMP180;10205;49.678;6.560;2023-08-24T11:35:58;99661.00;;;27.90
20092;BMP180;10205;49.678;6.560;2023-08-24T11:38:35;99675.00;;;27.90
20092;BMP180;10205;49.678;6.560;2023-08-24T11:41:11;99688.00;;;27.90
20092;BMP180;10205;49.678;6.560;2023-08-24T11:43:42;99699.00;;;27.90
20092;BMP180;10205;49.678;6.560;2023-08-24T11:46:10;99721.00;;;27.90
20092;BMP180;10205;49.678;6.560;2023-08-24T11:48:38;99721.00;;;27.90
20092;BMP180;10205;49.678;6.560;2023-08-24T11:51:08;99759.00;;;27.80
20092;BMP180;10205;49.678;6.560;2023-08-24T11:53:39;99789.00;;;27.80
20092;BMP180;10205;49.678;6.560;2023-08-24T11:56:08;99809.00;;;27.80
20092;BMP180;10205;49.678;6.560;2023-08-24T11:58:39;99829.00;;;27.70
20092;BMP180;10205;49.678;6.560;2023-08-24T12:01:09;99826.00;;;27.70
20092;BMP180;10205;49.678;6.560;2023-08-24T12:03:38;99861.00;;;27.60
20092;BMP180;10205;49.678;6.560;2023-08-24T12:06:12;99892.00;;;27.60
20092;BMP180;10205;49.678;6.560;2023-08-24T12:08:41;99933.00;;;27.60
20092;BMP180;10205;49.678;6.560;2023-08-24T12:11:14;99954.00;;;27.50
20092;BMP180;10205;49.678;6.560;2023-08-24T12:13:48;100011.00;;;27.40
20092;BMP180;10205;49.678;6.560;2023-08-24T12:16:17;100018.00;;;27.40
20092;BMP180;10205;49.678;6.560;2023-08-24T12:18:51;100020.00;;;27.40
20092;BMP180;10205;49.678;6.560;2023-08-24T12:21:19;99994.00;;;27.40
20092;BMP180;10205;49.678;6.560;2023-08-24T12:23:58;99857.00;;;27.40
20092;BMP180;10205;49.678;6.560;2023-08-24T12:26:26;99694.00;;;27.40
20092;BMP180;10205;49.678;6.560;2023-08-24T12:29:01;99626.00;;;27.30
20092;BMP180;10205;49.678;6.560;2023-08-24T12:31:30;99661.00;;;27.30
20092;BMP180;10205;49.678;6.560;2023-08-24T12:34:10;99723.00;;;27.20
20092;BMP180;10205;49.678;6.560;2023-08-24T12:36:38;99743.00;;;27.20
20092;BMP180;10205;49.678;6.560;2023-08-24T12:39:08;99729.00;;;27.20
20092;BMP180;10205;49.678;6.560;2023-08-24T12:41:36;99702.00;;;27.20
20092;BMP180;10205;49.678;6.560;2023-08-24T12:44:06;99701.00;;;27.20
20092;BMP180;10205;49.678;6.560;2023-08-24T12:46:34;99711.00;;;27.10
20092;BMP180;10205;49.678;6.560;2023-08-24T12:49:02;99697.00;;;27.10
20092;BMP180;10205;49.678;6.560;2023-08-24T12:51:30;99688.00;;;27.10
20092;BMP180;10205;49.678;6.560;2023-08-24T12:53:58;99666.00;;;27.10
20092;BMP180;10205;49.678;6.560;2023-08-24T12:56:25;99664.00;;;27.10
20092;BMP180;10205;49.678;6.560;2023-08-24T12:58:54;99652.00;;;27.10
20092;BMP180;10205;49.678;6.560;2023-08-24T13:01:23;99644.00;;;27.00
20092;BMP180;10205;49.678;6.560;2023-08-24T13:03:50;99657.00;;;27.00
20092;BMP180;10205;49.678;6.560;2023-08-24T13:06:17;99652.00;;;27.00
20092;BMP180;10205;49.678;6.560;2023-08-24T13:08:45;99647.00;;;27.00
20092;BMP180;10205;49.678;6.560;2023-08-24T13:11:12;99653.00;;;27.00
20092;BMP180;10205;49.678;6.560;2023-08-24T13:13:41;99662.00;;;27.00
20092;BMP180;10205;49.678;6.560;2023-08-24T13:16:11;99657.00;;;27.00
20092;BMP180;10205;49.678;6.560;2023-08-24T13:18:40;99665.00;;;27.00
20092;BMP180;10205;49.678;6.560;2023-08-24T13:21:08;99661.00;;;27.00
20092;BMP180;10205;49.678;6.560;2023-08-24T13:23:35;99660.00;;;27.00
20092;BMP180;10205;49.678;6.560;2023-08-24T13:26:03;99682.00;;;27.00
20092;BMP180;10205;49.678;6.560;2023-08-24T13:28:30;99691.00;;;27.00
20092;BMP180;10205;49.678;6.560;2023-08-24T13:30:58;99685.00;;;27.10
20092;BMP180;10205;49.678;6.560;2023-08-24T13:33:26;99702.00;;;27.10
20092;BMP180;10205;49.678;6.560;2023-08-24T13:35:55;99702.00;;;27.10
20092;BMP180;10205;49.678;6.560;2023-08-24T13:38:23;99686.00;;;27.10
20092;BMP180;10205;49.678;6.560;2023-08-24T13:40:52;99662.00;;;27.10
20092;BMP180;10205;49.678;6.560;2023-08-24T13:43:20;99637.00;;;27.10
20092;BMP180;10205;49.678;6.560;2023-08-24T13:45:48;99635.00;;;27.10
20092;BMP180;10205;49.678;6.560;2023-08-24T13:48:15;99626.00;;;27.10
20092;BMP180;10205;49.678;6.560;2023-08-24T13:50:51;99617.00;;;27.10
20092;BMP180;10205;49.678;6.560;2023-08-24T13:53:20;99608.00;;;27.10
20092;BMP180;10205;49.678;6.560;2023-08-24T13:55:48;99618.00;;;27.10
20092;BMP180;10205;49.678;6.560;2023-08-24T13:58:16;99624.00;;;27.10
20092;BMP180;10205;49.678;6.560;2023-08-24T14:00:43;99616.00;;;27.10
20092;BMP180;10205;49.678;6.560;2023-08-24T14:03:11;99608.00;;;27.10
20092;BMP180;10205;49.678;6.560;2023-08-24T14:05:39;99605.00;;;27.10
20092;BMP180;10205;49.678;6.560;2023-08-24T14:08:11;99614.00;;;27.10
20092;BMP180;10205;49.678;6.560;2023-08-24T14:10:41;99626.00;;;27.00
20092;BMP180;10205;49.678;6.560;2023-08-24T14:13:08;99652.00;;;27.00
20092;BMP180;10205;49.678;6.560;2023-08-24T14:15:36;99678.00;;;27.00